Time;durP1;ratioP1;P1;durP2;ratioP2;P2;SDS_P1;SDS_P2;PMS_P1;PMS_P2;Temp;Humidity;BMP_temperature;BMP_pressure;BME280_temperature;BME280_humidity;BME280_pressure;Samples;Min_cycle;Max_cycle;Signal;HPM_P1;HPM_P2
2023/04/12 00:01:56;;;;;;;21.42;2.45;;;8.40;99.90;;;;;;4899649;29;20036;-72
2023/04/12 00:04:26;;;;;;;18.30;2.03;;;8.50;99.90;;;;;;4901719;29;20479;-71
2023/04/12 00:06:53;;;;;;;22.50;2.20;;;8.50;99.90;;;;;;4901895;29;20064;-72
2023/04/12 00:09:19;;;;;;;23.23;2.03;;;8.60;99.90;;;;;;4898073;29;20059;-72
2023/04/12 00:11:45;;;;;;;23.75;1.90;;;8.60;99.90;;;;;;4900613;29;20420;-72
2023/04/12 00:14:10;;;;;;;22.70;2.15;;;8.60;99.90;;;;;;4901241;29;20040;-72
2023/04/12 00:16:37;;;;;;;18.25;2.78;;;8.60;99.90;;;;;;4902003;29;20111;-72
2023/04/12 00:19:03;;;;;;;29.17;3.03;;;8.60;99.90;;;;;;4901821;29;20568;-72
2023/04/12 00:21:29;;;;;;;23.23;2.28;;;8.60;99.90;;;;;;4887482;29;20455;-72
2023/04/12 00:23:55;;;;;;;24.70;2.83;;;8.60;99.90;;;;;;4889770;29;20035;-73
2023/04/12 00:26:21;;;;;;;32.17;3.83;;;8.60;99.90;;;;;;4897825;29;20036;-72
2023/04/12 00:28:47;;;;;;;21.67;3.03;;;8.60;99.90;;;;;;4898835;29;20063;-72
2023/04/12 00:31:13;;;;;;;30.20;2.45;;;8.60;99.90;;;;;;4901715;29;20538;-72
2023/04/12 00:33:38;;;;;;;22.77;2.65;;;8.70;99.90;;;;;;4893747;29;20199;-73
2023/04/12 00:36:04;;;;;;;25.52;2.67;;;8.60;99.90;;;;;;4901603;29;20028;-72
2023/04/12 00:38:30;;;;;;;26.23;3.50;;;8.60;99.90;;;;;;4902368;29;20032;-72
2023/04/12 00:40:56;;;;;;;31.67;3.28;;;8.60;99.90;;;;;;4900840;29;20039;-72
2023/04/12 00:43:22;;;;;;;22.55;2.83;;;8.60;99.90;;;;;;4901139;29;20489;-72
2023/04/12 00:45:48;;;;;;;27.65;3.55;;;8.60;99.90;;;;;;4899346;29;20036;-72
2023/04/12 00:48:15;;;;;;;24.17;3.15;;;8.60;99.90;;;;;;4908424;29;20043;-72
2023/04/12 00:50:43;;;;;;;27.80;2.45;;;8.60;99.90;;;;;;4907085;29;20110;-73
2023/04/12 00:53:12;;;;;;;30.60;3.85;;;8.60;99.90;;;;;;4889730;29;20028;-73
2023/04/12 00:55:48;;;;;;;26.17;3.95;;;8.60;99.90;;;;;;4907102;29;20040;-73
2023/04/12 00:58:15;;;;;;;32.22;4.18;;;8.60;99.90;;;;;;4894140;29;20028;-73
2023/04/12 01:00:48;;;;;;;34.53;5.18;;;8.50;99.90;;;;;;4907556;29;20702;-73
2023/04/12 01:03:26;;;;;;;30.73;3.72;;;8.40;99.90;;;;;;4896111;29;20365;-73
2023/04/12 01:06:08;;;;;;;34.28;4.78;;;8.30;99.90;;;;;;4899656;29;20582;-72
2023/04/12 01:08:49;;;;;;;27.00;3.20;;;8.20;99.90;;;;;;4891425;29;20032;-72
2023/04/12 01:11:30;;;;;;;30.33;4.32;;;8.20;99.90;;;;;;4906407;29;20138;-72
2023/04/12 01:13:56;;;;;;;26.58;3.10;;;8.20;99.90;;;;;;4887327;29;20115;-73
2023/04/12 01:16:39;;;;;;;25.35;3.05;;;8.20;99.90;;;;;;4899090;29;20334;-73
2023/04/12 01:19:21;;;;;;;27.83;3.72;;;8.20;99.90;;;;;;4901377;29;20040;-72
2023/04/12 01:21:50;;;;;;;34.42;3.78;;;8.20;99.90;;;;;;4899000;29;20399;-73
2023/04/12 01:24:25;;;;;;;28.27;3.30;;;8.20;99.90;;;;;;4907522;29;20055;-73
2023/04/12 01:26:56;;;;;;;21.38;3.40;;;8.30;99.90;;;;;;4906364;29;20048;-73
2023/04/12 01:29:25;;;;;;;30.55;4.10;;;8.20;99.90;;;;;;4906856;29;20048;-73
2023/04/12 01:31:56;;;;;;;28.50;4.30;;;8.20;99.90;;;;;;4907028;29;20500;-73
2023/04/12 01:34:23;;;;;;;15.95;2.85;;;8.20;99.90;;;;;;4902341;29;20095;-73
2023/04/12 01:36:50;;;;;;;24.05;3.33;;;8.30;99.90;;;;;;4901153;29;20052;-73
2023/04/12 01:39:16;;;;;;;23.45;3.20;;;8.20;99.90;;;;;;4903970;29;20036;-73
2023/04/12 01:41:44;;;;;;;19.65;3.13;;;8.20;99.90;;;;;;4903029;29;20696;-73
2023/04/12 01:44:16;;;;;;;28.67;3.92;;;8.20;99.90;;;;;;4905735;29;20127;-73
2023/04/12 01:46:46;;;;;;;13.77;2.30;;;8.20;99.90;;;;;;4900695;29;20053;-73
2023/04/12 01:49:12;;;;;;;22.75;3.15;;;8.10;99.90;;;;;;4899475;29;20038;-72
2023/04/12 01:51:52;;;;;;;25.92;3.08;;;8.10;99.90;;;;;;4902398;29;20044;-73
2023/04/12 01:54:30;;;;;;;24.45;3.10;;;8.10;99.90;;;;;;4905306;29;20044;-73
2023/04/12 01:56:58;;;;;;;21.33;3.55;;;8.10;99.90;;;;;;4903369;29;20043;-73
2023/04/12 01:59:32;;;;;;;22.00;3.08;;;8.00;99.90;;;;;;4903830;29;20092;-73
2023/04/12 02:01:58;;;;;;;32.25;4.03;;;8.00;99.90;;;;;;4895782;29;20459;-73
2023/04/12 02:04:26;;;;;;;17.65;3.10;;;7.90;99.90;;;;;;4903354;29;20114;-73
2023/04/12 02:06:52;;;;;;;22.10;3.28;;;7.90;99.90;;;;;;4905464;29;20856;-73
2023/04/12 02:09:18;;;;;;;22.17;3.00;;;7.90;99.90;;;;;;4903957;29;20028;-73
2023/04/12 02:11:47;;;;;;;25.88;3.28;;;7.80;99.90;;;;;;4895735;29;20036;-72
2023/04/12 02:14:13;;;;;;;23.85;3.03;;;7.80;99.90;;;;;;4881312;29;20051;-72
2023/04/12 02:16:41;;;;;;;23.00;2.45;;;7.80;99.90;;;;;;4879919;29;20389;-73
2023/04/12 02:19:07;;;;;;;24.02;3.15;;;7.60;99.90;;;;;;4896151;29;20032;-73
2023/04/12 02:21:41;;;;;;;17.67;2.83;;;7.60;99.90;;;;;;4901632;29;20242;-73
2023/04/12 02:24:06;;;;;;;18.42;2.72;;;7.50;99.90;;;;;;4916796;29;20062;-72
2023/04/12 02:26:32;;;;;;;26.27;3.65;;;7.40;99.90;;;;;;4887387;29;20111;-73
2023/04/12 02:28:58;;;;;;;27.15;2.90;;;7.20;99.90;;;;;;4898830;29;20119;-72
2023/04/12 02:31:23;;;;;;;26.33;3.35;;;7.10;99.90;;;;;;4902182;29;20223;-72
2023/04/12 02:33:49;;;;;;;21.35;3.03;;;7.10;99.90;;;;;;4900993;29;20412;-73
2023/04/12 02:36:15;;;;;;;19.30;3.38;;;7.10;99.90;;;;;;4899642;29;20088;-72
2023/04/12 02:38:40;;;;;;;19.35;2.97;;;7.20;99.90;;;;;;4895080;29;20040;-73
2023/04/12 02:41:06;;;;;;;19.88;2.40;;;7.30;99.90;;;;;;4903316;29;20116;-72
2023/04/12 02:43:32;;;;;;;19.95;3.50;;;7.30;99.90;;;;;;4902347;29;20114;-72
2023/04/12 02:45:59;;;;;;;17.27;2.88;;;7.30;99.90;;;;;;4889475;29;20986;-73
2023/04/12 02:48:24;;;;;;;18.40;3.33;;;7.30;99.90;;;;;;4900447;29;20155;-72
2023/04/12 02:50:50;;;;;;;16.98;3.40;;;7.30;99.90;;;;;;4884490;29;20107;-73
2023/04/12 02:53:16;;;;;;;22.20;2.92;;;7.30;99.90;;;;;;4896224;29;20028;-73
2023/04/12 02:55:43;;;;;;;16.77;2.13;;;7.30;99.90;;;;;;4884815;29;20040;-73
2023/04/12 02:58:09;;;;;;;19.20;2.78;;;7.20;99.90;;;;;;4899693;29;20477;-73
2023/04/12 03:00:34;;;;;;;14.10;1.90;;;7.10;99.90;;;;;;4901150;29;20035;-73
2023/04/12 03:03:02;;;;;;;19.15;2.78;;;7.00;99.90;;;;;;4898355;29;20901;-73
2023/04/12 03:05:28;;;;;;;24.58;2.75;;;6.90;99.90;;;;;;4902950;29;20092;-73
2023/04/12 03:07:53;;;;;;;17.98;2.70;;;6.80;99.90;;;;;;4901850;29;20060;-73
2023/04/12 03:10:19;;;;;;;21.75;2.95;;;6.60;99.90;;;;;;4898550;29;20036;-72
2023/04/12 03:12:45;;;;;;;16.42;2.30;;;6.50;99.90;;;;;;4901231;29;20036;-73
2023/04/12 03:15:11;;;;;;;22.15;2.92;;;6.40;99.90;;;;;;4892985;29;20043;-73
2023/04/12 03:17:36;;;;;;;18.92;3.38;;;6.30;99.90;;;;;;4899537;29;20036;-72
2023/04/12 03:20:08;;;;;;;16.23;3.15;;;6.20;99.90;;;;;;4883933;29;20028;-73
2023/04/12 03:22:35;;;;;;;20.52;2.60;;;6.10;99.90;;;;;;4883839;29;20159;-73
2023/04/12 03:25:01;;;;;;;19.88;2.20;;;6.00;99.90;;;;;;4888895;29;20040;-73
2023/04/12 03:27:27;;;;;;;18.33;2.72;;;6.00;99.90;;;;;;4900281;29;20051;-73
2023/04/12 03:29:52;;;;;;;17.45;2.58;;;5.90;99.90;;;;;;4901818;29;20472;-73
2023/04/12 03:32:19;;;;;;;25.10;3.08;;;5.90;99.90;;;;;;4900305;29;20483;-73
2023/04/12 03:34:45;;;;;;;12.93;2.42;;;5.80;99.90;;;;;;4898956;29;20090;-73
2023/04/12 03:37:10;;;;;;;19.10;2.38;;;5.80;99.90;;;;;;4897648;29;20043;-73
2023/04/12 03:39:36;;;;;;;25.10;2.97;;;5.70;99.90;;;;;;4892271;29;20043;-73
2023/04/12 03:42:02;;;;;;;20.13;2.60;;;5.70;99.90;;;;;;4900239;29;20491;-72
2023/04/12 03:44:27;;;;;;;23.92;2.50;;;5.70;99.90;;;;;;4901557;29;20039;-73
2023/04/12 03:46:53;;;;;;;18.50;2.30;;;5.60;99.90;;;;;;4897749;29;20028;-72
2023/04/12 03:49:19;;;;;;;14.93;2.40;;;5.60;99.90;;;;;;4898324;29;20340;-73
2023/04/12 03:51:45;;;;;;;15.68;2.28;;;5.50;99.90;;;;;;4883535;29;20025;-73
2023/04/12 03:54:12;;;;;;;18.00;2.92;;;5.50;99.90;;;;;;4883772;29;20041;-72
2023/04/12 03:56:38;;;;;;;19.70;2.55;;;5.40;99.90;;;;;;4896857;29;20032;-72
2023/04/12 03:59:07;;;;;;;20.45;2.70;;;5.40;99.90;;;;;;4902010;29;20035;-73
2023/04/12 04:01:36;;;;;;;17.02;2.63;;;5.40;99.90;;;;;;4898938;29;20633;-72
2023/04/12 04:04:02;;;;;;;16.38;2.05;;;5.40;99.90;;;;;;4881606;29;20108;-72
2023/04/12 04:06:28;;;;;;;15.45;2.33;;;5.30;99.90;;;;;;4903896;23;20548;-73
2023/04/12 04:08:55;;;;;;;17.13;2.10;;;5.30;99.90;;;;;;4890764;29;20039;-72
2023/04/12 04:11:22;;;;;;;18.90;2.78;;;5.30;99.90;;;;;;4901262;29;20028;-72
2023/04/12 04:13:48;;;;;;;22.73;3.17;;;5.30;99.90;;;;;;4889695;29;20023;-73
2023/04/12 04:16:14;;;;;;;18.58;2.67;;;5.30;99.90;;;;;;4892372;29;20409;-73
2023/04/12 04:18:39;;;;;;;11.25;2.20;;;5.40;99.90;;;;;;4878104;29;20100;-72
2023/04/12 04:21:07;;;;;;;15.18;2.08;;;5.40;99.90;;;;;;4886318;29;20122;-73
2023/04/12 04:23:39;;;;;;;18.15;2.40;;;5.30;99.90;;;;;;4891866;29;20119;-73
2023/04/12 04:26:09;;;;;;;17.00;2.30;;;5.30;99.90;;;;;;4895509;29;20256;-73
2023/04/12 04:28:41;;;;;;;19.00;2.50;;;5.30;99.90;;;;;;4881230;29;20415;-73
2023/04/12 04:31:09;;;;;;;15.05;2.63;;;5.20;99.90;;;;;;4887362;29;20036;-73
2023/04/12 04:33:35;;;;;;;19.17;2.10;;;5.20;99.90;;;;;;4898125;29;20032;-73
2023/04/12 04:36:03;;;;;;;15.23;2.50;;;5.10;99.90;;;;;;4897358;29;20044;-73
2023/04/12 04:38:31;;;;;;;21.48;2.85;;;5.10;99.90;;;;;;4893637;29;20192;-73
2023/04/12 04:40:58;;;;;;;13.60;2.38;;;5.00;99.90;;;;;;4883402;29;20028;-73
2023/04/12 04:43:25;;;;;;;14.98;1.92;;;5.00;99.90;;;;;;4889996;29;20040;-73
2023/04/12 04:45:54;;;;;;;14.27;2.10;;;4.90;99.90;;;;;;4898877;29;20044;-73
2023/04/12 04:48:20;;;;;;;21.52;2.50;;;4.90;99.90;;;;;;4914834;29;20032;-73
2023/04/12 04:50:46;;;;;;;18.83;2.10;;;4.90;99.90;;;;;;4894461;29;20357;-73
2023/04/12 04:53:12;;;;;;;18.73;1.92;;;4.90;99.90;;;;;;4882374;29;20505;-72
2023/04/12 04:55:38;;;;;;;14.52;1.98;;;4.90;99.90;;;;;;4891928;29;20036;-72
2023/04/12 04:58:06;;;;;;;22.67;2.40;;;4.90;99.90;;;;;;4900240;29;20036;-73
2023/04/12 05:00:34;;;;;;;12.07;1.80;;;4.90;99.90;;;;;;4900917;29;20040;-73
2023/04/12 05:03:01;;;;;;;11.20;1.63;;;4.90;99.90;;;;;;4890576;29;20257;-73
2023/04/12 05:05:28;;;;;;;14.35;2.40;;;4.80;99.90;;;;;;4878257;29;20033;-73
2023/04/12 05:07:54;;;;;;;15.95;2.08;;;4.80;99.90;;;;;;4878924;29;20191;-72
2023/04/12 05:10:20;;;;;;;14.75;1.85;;;4.70;99.90;;;;;;4886135;29;20032;-73
2023/04/12 05:12:45;;;;;;;16.63;2.05;;;4.70;99.90;;;;;;4896076;29;20107;-73
2023/04/12 05:15:11;;;;;;;17.70;2.22;;;4.70;99.90;;;;;;4886245;29;20492;-73
2023/04/12 05:17:37;;;;;;;11.82;1.88;;;4.70;99.90;;;;;;4894966;29;20095;-72
2023/04/12 05:20:07;;;;;;;17.20;1.92;;;4.60;99.90;;;;;;4902015;29;20144;-73
2023/04/12 05:22:36;;;;;;;14.43;2.08;;;4.70;99.90;;;;;;4896381;29;20404;-73
2023/04/12 05:25:02;;;;;;;11.88;1.90;;;4.60;99.90;;;;;;4886238;29;20040;-73
2023/04/12 05:27:29;;;;;;;14.90;1.55;;;4.60;99.90;;;;;;4885814;29;20039;-73
2023/04/12 05:29:58;;;;;;;13.38;2.38;;;4.60;99.90;;;;;;4882994;29;20117;-73
2023/04/12 05:32:24;;;;;;;8.10;1.85;;;4.60;99.90;;;;;;4893645;29;20142;-73
2023/04/12 05:34:51;;;;;;;12.13;1.92;;;4.60;99.90;;;;;;4899916;29;20095;-73
2023/04/12 05:37:16;;;;;;;11.35;2.08;;;4.70;99.90;;;;;;4901286;29;20471;-72
2023/04/12 05:39:42;;;;;;;10.63;1.85;;;4.70;99.90;;;;;;4895618;29;20493;-73
2023/04/12 05:42:08;;;;;;;11.15;1.73;;;4.80;99.90;;;;;;4886118;29;20465;-73
2023/04/12 05:44:37;;;;;;;7.90;1.50;;;4.80;99.90;;;;;;4898628;29;20504;-73
2023/04/12 05:47:03;;;;;;;13.90;2.20;;;4.90;99.90;;;;;;4894029;29;20045;-72
2023/04/12 05:49:32;;;;;;;15.30;1.90;;;5.10;99.90;;;;;;4884194;29;20037;-73
2023/04/12 05:51:58;;;;;;;16.58;1.73;;;5.20;99.90;;;;;;4889114;29;20037;-73
2023/04/12 05:54:24;;;;;;;12.82;1.77;;;5.40;99.90;;;;;;4901226;29;20442;-73
2023/04/12 05:56:51;;;;;;;21.65;2.47;;;5.70;99.90;;;;;;4901603;29;20058;-73
2023/04/12 05:59:18;;;;;;;10.02;2.33;;;5.90;99.90;;;;;;4901594;29;20028;-73
2023/04/12 06:01:44;;;;;;;18.23;2.22;;;6.30;99.90;;;;;;4894999;29;20031;-73
2023/04/12 06:04:10;;;;;;;13.48;1.60;;;6.50;99.90;;;;;;4893267;29;20198;-73
2023/04/12 06:06:35;;;;;;;227.77;121.72;;;6.70;99.90;;;;;;4882722;29;20056;-73
2023/04/12 06:09:03;;;;;;;521.05;276.40;;;6.80;99.90;;;;;;4899845;29;20150;-72
2023/04/12 06:11:30;;;;;;;80.70;33.97;;;6.80;99.90;;;;;;4894557;29;20078;-73
2023/04/12 06:13:56;;;;;;;39.47;14.23;;;7.00;99.90;;;;;;4894059;29;20118;-73
2023/04/12 06:16:22;;;;;;;31.63;9.23;;;7.20;99.90;;;;;;4890740;29;20156;-73
2023/04/12 06:18:47;;;;;;;16.20;4.72;;;7.40;99.90;;;;;;4887192;29;20028;-73
2023/04/12 06:21:13;;;;;;;12.70;2.67;;;7.60;99.90;;;;;;4892476;29;20099;-73
2023/04/12 06:23:39;;;;;;;11.98;2.05;;;7.70;99.90;;;;;;4894148;29;20574;-73
2023/04/12 06:26:05;;;;;;;14.18;1.88;;;7.80;99.90;;;;;;4882301;29;20040;-74
2023/04/12 06:28:30;;;;;;;6.50;2.00;;;8.20;99.90;;;;;;4892424;29;20028;-74
2023/04/12 06:30:56;;;;;;;8.43;1.45;;;8.50;99.90;;;;;;4891769;29;20119;-73
2023/04/12 06:33:21;;;;;;;13.30;1.48;;;8.80;99.90;;;;;;4898683;29;20119;-74
2023/04/12 06:35:48;;;;;;;8.73;1.30;;;9.10;99.90;;;;;;4888567;29;20036;-73
2023/04/12 06:38:13;;;;;;;9.57;1.70;;;9.30;99.90;;;;;;4891702;29;20039;-73
2023/04/12 06:40:39;;;;;;;13.65;1.70;;;9.40;99.90;;;;;;4883559;29;20032;-73
2023/04/12 06:43:05;;;;;;;9.13;1.50;;;9.60;99.90;;;;;;4891793;29;20037;-73
2023/04/12 06:45:31;;;;;;;13.43;1.73;;;9.60;99.90;;;;;;4889679;29;20411;-73
2023/04/12 06:47:56;;;;;;;11.98;1.80;;;9.80;99.90;;;;;;4882953;29;20036;-73
2023/04/12 06:50:22;;;;;;;8.35;1.58;;;9.70;99.90;;;;;;4888709;29;20827;-73
2023/04/12 06:52:48;;;;;;;11.38;1.50;;;9.70;99.90;;;;;;4887899;29;20028;-73
2023/04/12 06:55:14;;;;;;;10.48;2.00;;;9.70;99.90;;;;;;4897672;29;20480;-73
2023/04/12 06:57:43;;;;;;;12.55;1.67;;;9.70;99.90;;;;;;4899881;29;20035;-73
2023/04/12 07:00:10;;;;;;;9.77;1.30;;;9.60;99.90;;;;;;4900592;29;20024;-73
2023/04/12 07:02:37;;;;;;;10.93;1.52;;;9.80;99.90;;;;;;4897868;29;20511;-73
2023/04/12 07:05:03;;;;;;;13.63;1.50;;;9.80;99.90;;;;;;4887847;29;20044;-73
2023/04/12 07:07:29;;;;;;;12.30;1.65;;;9.80;99.90;;;;;;4890281;29;20052;-73
2023/04/12 07:09:55;;;;;;;13.20;1.60;;;9.70;99.90;;;;;;4899076;29;20036;-74
2023/04/12 07:12:21;;;;;;;14.27;1.63;;;9.80;99.90;;;;;;4900591;29;20047;-74
2023/04/12 07:14:47;;;;;;;15.32;1.98;;;9.80;99.90;;;;;;4898617;29;20556;-73
2023/04/12 07:17:12;;;;;;;15.43;1.92;;;9.90;99.90;;;;;;4898471;29;20157;-74
2023/04/12 07:19:40;;;;;;;11.80;2.25;;;9.80;99.90;;;;;;4890441;29;20172;-73
2023/04/12 07:22:06;;;;;;;15.95;2.00;;;9.60;99.90;;;;;;4891578;29;20024;-74
2023/04/12 07:27:07;;;;;;;9.00;1.17;;;9.30;99.90;;;;;;5388074;23;20287;-87
2023/04/12 07:32:08;;;;;;;4.78;0.98;;;8.20;99.90;;;;;;4896320;29;20056;-80
2023/04/12 07:34:35;;;;;;;6.15;0.70;;;7.70;99.90;;;;;;4897531;29;20039;-79
2023/04/12 07:37:01;;;;;;;6.57;1.20;;;7.20;99.90;;;;;;4911102;29;20585;-78
2023/04/12 07:39:28;;;;;;;6.68;0.98;;;7.10;99.90;;;;;;4902460;29;20036;-80
2023/04/12 07:41:54;;;;;;;10.32;1.55;;;7.00;99.90;;;;;;4558477;29;10000183;-80
2023/04/12 07:44:20;;;;;;;6.78;1.45;;;7.10;99.90;;;;;;4896546;29;20036;-81
2023/04/12 07:46:46;;;;;;;6.80;1.23;;;7.30;99.90;;;;;;4898571;29;20519;-84
2023/04/12 07:49:12;;;;;;;7.25;0.90;;;7.60;99.90;;;;;;4899092;29;20032;-79
2023/04/12 07:51:37;;;;;;;5.55;0.93;;;8.20;99.90;;;;;;4897685;29;20563;-78
2023/04/12 07:54:03;;;;;;;5.82;1.08;;;8.70;99.90;;;;;;4897254;29;20039;-81
2023/04/12 07:56:33;;;;;;;8.85;0.93;;;8.60;99.90;;;;;;4900011;29;20028;-82
2023/04/12 07:58:58;;;;;;;3.83;1.08;;;8.70;99.90;;;;;;4898906;29;20151;-83
2023/04/12 08:01:24;;;;;;;4.78;0.90;;;8.50;99.90;;;;;;4894053;29;20092;-83
2023/04/12 08:03:50;;;;;;;8.52;1.23;;;8.20;99.90;;;;;;4892855;29;20647;-82
2023/04/12 08:06:16;;;;;;;11.52;1.30;;;8.00;99.90;;;;;;4885319;29;20044;-80
2023/04/12 08:08:41;;;;;;;9.13;1.05;;;8.10;99.90;;;;;;4893048;29;20035;-81
2023/04/12 08:11:07;;;;;;;5.45;1.02;;;8.60;99.90;;;;;;4892394;29;20107;-82
2023/04/12 08:13:33;;;;;;;3.10;0.68;;;8.90;99.90;;;;;;4897440;29;20032;-82
2023/04/12 08:15:59;;;;;;;8.77;1.02;;;11.80;99.90;;;;;;4891776;29;20446;-81
2023/04/12 08:18:24;;;;;;;2.92;0.50;;;15.10;96.40;;;;;;4893469;29;20020;-86
2023/04/12 08:20:51;;;;;;;5.53;1.08;;;18.40;63.70;;;;;;4905149;29;20585;-86
2023/04/12 08:23:16;;;;;;;5.80;0.73;;;20.80;52.20;;;;;;4888045;29;20414;-80
2023/04/12 08:25:42;;;;;;;4.40;0.70;;;22.70;48.30;;;;;;4901521;29;20064;-84
2023/04/12 08:28:08;;;;;;;2.95;0.70;;;22.70;43.60;;;;;;4891274;29;20035;-84
2023/04/12 08:30:34;;;;;;;4.38;0.82;;;24.20;41.30;;;;;;4884132;29;20158;-84
2023/04/12 08:33:00;;;;;;;4.78;1.17;;;25.30;38.40;;;;;;4886335;29;20123;-82
2023/04/12 08:35:26;;;;;;;5.82;1.30;;;26.30;38.00;;;;;;4886047;29;20146;-83
2023/04/12 08:37:51;;;;;;;6.45;1.05;;;26.90;33.90;;;;;;4889201;29;20043;-84
2023/04/12 08:40:17;;;;;;;3.72;0.80;;;26.50;34.70;;;;;;4911789;29;20118;-87
2023/04/12 08:42:43;;;;;;;3.38;0.80;;;25.70;36.50;;;;;;4902909;29;20032;-88
2023/04/12 08:45:10;;;;;;;5.20;1.00;;;25.60;35.60;;;;;;4901228;29;20039;-90
2023/04/12 08:47:43;;;;;;;3.85;0.82;;;26.70;36.00;;;;;;4906840;29;20048;-86
2023/04/12 08:50:12;;;;;;;5.00;0.70;;;27.00;34.10;;;;;;4916940;29;20080;-86
2023/04/12 08:52:37;;;;;;;3.95;0.80;;;23.60;35.80;;;;;;4565145;29;10000697;-86
2023/04/12 08:55:04;;;;;;;5.10;0.90;;;21.80;39.90;;;;;;4901704;29;20024;-84
2023/04/12 08:57:34;;;;;;;4.07;0.70;;;19.50;41.30;;;;;;4902970;29;20523;-87
2023/04/12 09:00:00;;;;;;;3.60;0.95;;;18.30;45.90;;;;;;4902818;29;20169;-88
2023/04/12 09:02:26;;;;;;;3.58;0.80;;;20.20;50.10;;;;;;4904154;29;20040;-88
2023/04/12 09:04:52;;;;;;;2.58;0.65;;;22.30;39.50;;;;;;4905581;29;20058;-89
2023/04/12 09:07:22;;;;;;;3.90;0.57;;;23.50;37.20;;;;;;4906174;29;20072;-89
2023/04/12 09:09:48;;;;;;;3.30;0.63;;;24.10;34.70;;;;;;4908009;29;20048;-88
2023/04/12 09:12:18;;;;;;;5.47;0.60;;;24.30;33.30;;;;;;4905415;29;20043;-88
2023/04/12 09:14:44;;;;;;;4.90;0.73;;;23.40;35.60;;;;;;4905881;29;20299;-89
2023/04/12 09:17:27;;;;;;;6.50;1.10;;;23.50;33.60;;;;;;4905698;29;20260;-89
2023/04/12 09:19:55;;;;;;;3.85;0.90;;;22.10;35.70;;;;;;4902007;29;20120;-86
2023/04/12 09:22:38;;;;;;;9.95;0.88;;;21.50;38.90;;;;;;4904996;29;20428;-85
2023/04/12 09:25:04;;;;;;;;;;;22.70;36.60;;;;;;4558444;28;10000390;-90
2023/04/12 09:27:45;;;;;;;6.13;0.98;;;24.80;36.20;;;;;;4895173;29;19923;-89
2023/04/12 09:30:11;;;;;;;;;;;25.00;34.00;;;;;;4895162;29;20028;-89
2023/04/12 09:32:37;;;;;;;5.82;0.80;;;23.90;35.10;;;;;;4904505;29;20576;-91
2023/04/12 09:35:04;;;;;;;7.75;0.88;;;25.60;32.40;;;;;;4906254;29;20032;-89
2023/04/12 09:37:30;;;;;;;9.90;1.08;;;26.90;32.40;;;;;;4899626;29;20032;-87
2023/04/12 09:40:09;;;;;;;6.28;1.40;;;25.50;29.80;;;;;;4906107;29;20888;-90
2023/04/12 09:42:47;;;;;;;7.47;1.48;;;22.80;35.90;;;;;;4904508;29;20028;-88
2023/04/12 09:45:25;;;;;;;8.40;1.23;;;21.10;37.20;;;;;;4906038;29;20073;-87
2023/04/12 09:47:52;;;;;;;5.38;1.02;;;18.50;42.10;;;;;;4897720;29;20099;-88
2023/04/12 09:50:22;;;;;;;9.25;1.33;;;18.80;47.70;;;;;;4903215;29;20833;-88
2023/04/12 09:52:48;;;;;;;8.00;1.02;;;21.70;43.40;;;;;;4897991;29;20381;-90
2023/04/12 09:55:14;;;;;;;8.13;1.10;;;23.20;37.90;;;;;;4900343;29;20415;-87
2023/04/12 09:57:41;;;;;;;5.57;1.23;;;23.50;40.00;;;;;;4911870;29;20039;-89
2023/04/12 10:00:15;;;;;;;9.27;1.40;;;25.70;34.70;;;;;;4910219;29;20028;-87
2023/04/12 10:02:43;;;;;;;6.55;1.17;;;25.80;30.80;;;;;;4901402;29;20067;-88
2023/04/12 10:05:14;;;;;;;5.30;1.40;;;25.80;30.80;;;;;;4912243;29;20075;-87
2023/04/12 10:07:41;;;;;;;8.88;1.20;;;26.50;29.50;;;;;;4888982;29;20021;-87
2023/04/12 10:10:08;;;;;;;9.20;1.50;;;27.20;30.00;;;;;;4900875;29;20204;-87
2023/04/12 10:12:38;;;;;;;6.22;1.10;;;24.80;30.20;;;;;;4902292;29;20072;-87
2023/04/12 10:15:11;;;;;;;7.72;1.25;;;22.40;36.60;;;;;;4902570;29;20042;-87
2023/04/12 10:17:40;;;;;;;7.13;1.77;;;19.20;40.10;;;;;;4919131;29;20031;-86
2023/04/12 10:20:06;;;;;;;6.55;1.38;;;16.50;51.20;;;;;;4919586;29;21276;-85
2023/04/12 10:22:32;;;;;;;5.97;1.33;;;17.00;57.20;;;;;;4908022;29;20036;-87
2023/04/12 10:24:59;;;;;;;5.07;0.90;;;18.80;44.50;;;;;;4899647;29;20040;-86
2023/04/12 10:27:26;;;;;;;4.47;0.90;;;20.60;39.00;;;;;;4901208;29;20028;-87
2023/04/12 10:29:51;;;;;;;9.85;1.10;;;21.60;37.20;;;;;;4901869;29;20074;-87
2023/04/12 10:32:24;;;;;;;5.63;1.10;;;23.40;36.20;;;;;;4900111;29;20476;-86
2023/04/12 10:34:57;;;;;;;6.55;1.27;;;25.70;35.90;;;;;;4902129;29;20036;-86
2023/04/12 10:38:01;;;;;;;4.95;1.30;;;25.70;30.60;;;;;;4899583;29;20326;-87
2023/04/12 10:40:31;;;;;;;4.93;1.08;;;23.20;32.60;;;;;;4902516;29;20042;-87
2023/04/12 10:43:33;;;;;;;2.97;0.43;;;23.00;33.30;;;;;;4883010;29;20044;-87
2023/04/12 10:46:03;;;;;;;3.25;0.40;;;24.00;30.40;;;;;;4864702;29;20155;-87
2023/04/12 10:48:36;;;;;;;2.72;0.60;;;24.30;30.80;;;;;;4891505;29;20048;-90
2023/04/12 10:51:24;;;;;;;3.67;0.77;;;24.40;31.50;;;;;;4914188;29;20044;-87
2023/04/12 10:54:17;;;;;;;4.22;0.65;;;24.70;29.90;;;;;;4898042;29;20284;-87
2023/04/12 10:56:43;;;;;;;4.20;0.90;;;24.80;32.00;;;;;;4561474;28;10000148;-87
2023/04/12 10:59:10;;;;;;;7.30;0.90;;;24.20;32.60;;;;;;4907087;29;20091;-86
2023/04/12 11:01:36;;;;;;;7.22;1.15;;;25.20;31.60;;;;;;4900527;29;20032;-87
2023/04/12 11:07:20;;;;;;;7.93;1.30;;;24.50;28.70;;;;;;4886700;27;20048;-73
2023/04/12 11:09:47;;;;;;;7.90;1.50;;;25.00;29.40;;;;;;4883366;29;20200;-74
2023/04/12 11:12:14;;;;;;;11.10;1.80;;;24.10;30.50;;;;;;4891655;29;20509;-74
2023/04/12 11:14:48;;;;;;;11.23;1.80;;;24.30;32.10;;;;;;4890253;29;20552;-74
2023/04/12 11:17:17;;;;;;;8.20;1.48;;;24.50;31.40;;;;;;4893558;29;20032;-75
2023/04/12 11:19:58;;;;;;;8.88;1.65;;;23.40;31.90;;;;;;4895853;29;20463;-74
2023/04/12 11:22:29;;;;;;;6.82;1.67;;;23.60;35.20;;;;;;4885458;29;20090;-74
2023/04/12 11:25:00;;;;;;;12.43;2.08;;;22.70;32.40;;;;;;4886822;29;21163;-74
2023/04/12 11:27:27;;;;;;;11.93;1.52;;;20.90;34.40;;;;;;4880228;29;20051;-75
2023/04/12 11:29:54;;;;;;;12.05;1.65;;;20.20;39.20;;;;;;4886631;29;20128;-76
2023/04/12 11:32:22;;;;;;;10.07;1.80;;;19.30;41.50;;;;;;4896957;29;20080;-76
2023/04/12 11:34:48;;;;;;;13.07;1.80;;;18.90;44.50;;;;;;4895705;29;20039;-75
2023/04/12 11:37:16;;;;;;;10.13;1.80;;;17.50;43.70;;;;;;4892632;29;20044;-75
2023/04/12 11:39:44;;;;;;;10.98;2.33;;;16.70;46.90;;;;;;4894418;29;20127;-76
2023/04/12 11:42:14;;;;;;;10.57;2.17;;;16.90;52.00;;;;;;4895004;29;20039;-75
2023/04/12 11:44:41;;;;;;;12.55;2.00;;;15.80;49.30;;;;;;4888958;29;20099;-73
2023/04/12 11:47:21;;;;;;;11.80;2.47;;;15.30;51.40;;;;;;4883843;29;20036;-74
2023/04/12 11:49:57;;;;;;;11.27;2.13;;;15.50;55.60;;;;;;4893230;29;20043;-77
2023/04/12 11:52:30;;;;;;;13.93;2.23;;;15.70;55.70;;;;;;4553823;29;9999870;-74
2023/04/12 11:55:05;;;;;;;12.93;1.77;;;15.90;53.50;;;;;;4894645;29;20285;-76
2023/04/12 11:57:31;;;;;;;10.05;1.77;;;15.50;58.30;;;;;;4895180;29;20035;-75
2023/04/12 12:00:00;;;;;;;13.93;2.05;;;16.20;54.20;;;;;;4895021;29;20028;-76
2023/04/12 12:02:26;;;;;;;11.10;2.13;;;16.40;52.70;;;;;;4885100;29;20244;-77
2023/04/12 12:04:54;;;;;;;13.40;1.80;;;16.50;50.80;;;;;;4886956;29;20053;-74
2023/04/12 12:07:21;;;;;;;15.70;2.53;;;16.20;54.10;;;;;;4885505;29;20055;-77
2023/04/12 12:09:48;;;;;;;16.27;2.05;;;15.70;52.70;;;;;;4891428;29;20028;-75
2023/04/12 12:12:15;;;;;;;15.20;2.47;;;16.10;53.40;;;;;;4901407;29;20663;-76
2023/04/12 12:14:43;;;;;;;20.65;2.97;;;16.40;50.30;;;;;;4883351;29;20032;-76
2023/04/12 12:17:11;;;;;;;16.55;2.60;;;16.80;48.80;;;;;;4891501;29;20475;-75
2023/04/12 12:19:38;;;;;;;14.75;2.45;;;16.40;50.00;;;;;;4891299;29;20041;-76
2023/04/12 12:22:10;;;;;;;21.40;2.67;;;16.60;49.40;;;;;;4896120;29;20578;-75
2023/04/12 12:24:36;;;;;;;18.50;2.42;;;16.60;53.50;;;;;;4893111;29;20080;-76
2023/04/12 12:27:03;;;;;;;20.85;2.80;;;17.00;51.90;;;;;;4891544;29;20045;-76
2023/04/12 12:29:38;;;;;;;11.82;2.33;;;16.20;44.80;;;;;;4890082;29;20204;-75
2023/04/12 12:32:12;;;;;;;18.38;2.10;;;14.50;48.30;;;;;;4884970;29;20145;-77
2023/04/12 12:34:39;;;;;;;11.27;2.08;;;13.40;59.70;;;;;;4884868;29;20506;-76
2023/04/12 12:37:09;;;;;;;5.20;0.82;;;12.40;90.60;;;;;;4893210;29;20061;-76
2023/04/12 12:39:35;;;;;;;4.30;1.00;;;10.60;94.30;;;;;;4882970;29;20036;-76
2023/04/12 12:42:04;;;;;;;11.43;1.38;;;10.10;96.50;;;;;;4894555;29;20036;-76
2023/04/12 12:44:29;;;;;;;8.60;1.55;;;10.70;99.90;;;;;;4896331;29;20763;-75
2023/04/12 12:46:58;;;;;;;16.55;2.35;;;11.80;99.90;;;;;;4892466;29;20032;-75
2023/04/12 12:49:24;;;;;;;14.55;2.88;;;12.40;98.80;;;;;;4900641;29;20032;-75
2023/04/12 12:51:49;;;;;;;17.60;2.63;;;12.90;94.20;;;;;;4901034;29;20032;-75
2023/04/12 12:54:16;;;;;;;18.90;2.88;;;12.90;85.20;;;;;;4895011;29;20552;-76
2023/04/12 12:56:42;;;;;;;17.58;2.88;;;13.20;79.10;;;;;;4891824;29;20118;-75
2023/04/12 12:59:07;;;;;;;20.08;3.33;;;13.50;81.30;;;;;;4893244;29;20028;-75